Latest Weather Observations for Jandakot

IDW60901

Issued at 9:01 pm WST Sunday 26 April 2015 (issued every 10 minutes, with the page automatically refreshed every 10 minutes)

About weather observations | Map of Perth area stations | Latest observations for Perth area | Other Formats
Station Details ID: 009172 Name: JANDAKOT AERO Lat: -32.10 Lon: 115.88 Height: 30.0 m
Data from the previous 72 hours. | See also: Recent months at Jandakot
Date/Time
WST
Tmp

°C
App
Tmp
°C
Dew
Point
°C
Rel
Hum
%
Delta-T

°C
Wind Press
QNH
hPa
Press
MSL
hPa
Rain
since
9 am
mm
Dir
 
Spd
km/h
Gust
km/h
Spd
kts
Gust
kts
26/09:00pm 13.7 10.2 3.4 50 4.6 ESE 11 13 6 7 1025.0 1025.0 0.0
26/08:30pm 14.5 11.4 3.4 47 5.0 E 9 11 5 6 1025.0 1025.0 0.0
26/08:00pm 15.0 11.5 3.5 46 5.2 E 11 13 6 7 1024.9 1024.8 0.0
26/07:30pm 16.7 12.7 3.1 40 6.2 E 13 15 7 8 1024.6 1024.5 0.0
26/07:00pm 17.9 14.3 3.1 37 6.8 E 11 13 6 7 1024.3 1024.2 0.0
26/06:30pm 18.6 15.1 3.3 36 7.1 E 11 15 6 8 1024.0 1023.9 0.0
26/06:00pm 19.8 15.9 3.4 33 7.7 E 13 19 7 10 1023.7 1023.6 0.0
26/05:30pm 21.7 17.4 3.2 29 8.8 E 15 19 8 10 1023.4 1023.3 0.0
26/05:00pm 22.9 18.0 2.3 26 9.7 E 17 24 9 13 1023.2 1023.1 0.0
26/04:30pm 23.5 18.0 2.1 24 10.1 E 20 26 11 14 1023.1 1023.0 0.0
26/04:00pm 24.0 18.6 2.3 24 10.3 E 20 28 11 15 1023.1 1023.0 0.0
26/03:30pm 24.3 19.5 2.6 24 10.4 ENE 17 24 9 13 1022.9 1022.8 0.0
26/03:00pm 24.3 18.6 2.6 24 10.4 E 22 30 12 16 1022.9 1022.8 0.0
26/02:30pm 24.1 19.7 2.9 25 10.2 E 15 24 8 13 1023.1 1023.0 0.0
26/02:00pm 24.0 20.2 4.0 27 9.8 NE 13 22 7 12 1023.3 1023.2 0.0
26/01:30pm 24.1 19.1 3.6 26 10.0 ENE 19 26 10 14 1023.5 1023.4 0.0
26/01:00pm 23.1 17.5 3.7 28 9.4 ENE 22 32 12 17 1023.8 1023.7 0.0
26/12:30pm 22.5 17.7 4.6 31 8.8 ENE 19 28 10 15 1024.3 1024.2 0.0
26/12:00pm 22.9 17.5 4.3 29 9.1 NE 22 39 12 21 1024.9 1024.8 0.0
26/11:30am 22.0 15.9 4.6 32 8.5 ENE 26 33 14 18 1025.3 1025.3 0.0
26/11:00am 21.4 15.2 4.5 33 8.2 ENE 26 35 14 19 1025.7 1025.7 0.0
26/10:30am 20.5 15.2 4.9 36 7.6 ENE 22 28 12 15 1026.1 1026.1 0.0
26/10:00am 19.8 14.4 4.6 36 7.3 ENE 22 28 12 15 1026.3 1026.3 0.0
26/09:30am 18.4 13.1 5.1 41 6.4 ENE 22 33 12 18 1026.4 1026.4 0.0
26/09:00am 17.2 12.5 5.0 44 5.8 NE 19 28 10 15 1026.6 1026.6 0.0
26/08:30am 15.4 12.4 6.0 53 4.5 E 11 15 6 8 1026.7 1026.7 0.0
26/08:00am 13.8 10.4 5.7 58 3.8 E 13 17 7 9 1026.4 1026.4 0.0
26/07:30am 12.5 9.0 5.6 63 3.2 E 13 17 7 9 1026.0 1026.0 0.0
26/07:00am 11.5 8.0 5.6 67 2.7 E 13 17 7 9 1025.8 1025.8 0.0
26/06:30am 11.6 7.0 5.5 66 2.8 E 19 24 10 13 1025.5 1025.5 0.0
26/06:00am 11.2 6.9 5.3 67 2.7 ESE 17 20 9 11 1025.4 1025.4 0.0
26/05:30am 10.9 7.7 5.2 68 2.6 E 11 13 6 7 1025.4 1025.4 0.0
26/05:00am 11.4 8.6 5.0 65 2.9 E 9 11 5 6 1025.3 1025.3 0.0
26/04:30am 12.5 10.0 4.8 59 3.5 E 7 13 4 7 1025.2 1025.2 0.0
26/04:00am 13.1 9.9 5.1 58 3.7 E 11 17 6 9 1025.0 1025.0 0.0
26/03:30am 13.5 9.9 4.8 55 4.0 E 13 20 7 11 1025.1 1025.1 0.0
26/03:00am 14.0 10.3 4.7 53 4.3 E 13 20 7 11 1025.0 1025.0 0.0
26/02:30am 14.0 9.6 4.9 54 4.2 ESE 17 20 9 11 1025.0 1025.0 0.0
26/02:00am 15.2 10.8 4.7 49 4.9 E 17 28 9 15 1025.1 1025.1 0.0
26/01:30am 16.1 10.7 4.6 46 5.4 E 22 33 12 18 1025.0 1025.0 0.0
26/01:00am 15.5 11.1 4.8 49 5.0 E 17 28 9 15 1025.0 1025.0 0.0
26/12:30am 14.5 10.9 5.1 53 4.4 ESE 13 17 7 9 1025.0 1025.0 0.0
26/12:00am 15.7 11.3 4.8 48 5.1 E 17 24 9 13 1024.9 1024.8 0.0
 
Date/Time
WST
Tmp

°C
App
Tmp
°C
Dew
Point
°C
Rel
Hum
%
Delta-T

°C
Wind Press
QNH
hPa
Press
MSL
hPa
Rain
since
9 am
mm
Dir
 
Spd
km/h
Gust
km/h
Spd
kts
Gust
kts
25/11:30pm 15.3 11.3 5.1 50 4.8 E 15 24 8 13 1025.1 1025.1 0.0
25/11:00pm 15.6 10.7 5.2 50 4.9 ESE 20 32 11 17 1025.2 1025.2 0.0
25/10:30pm 16.0 11.3 5.0 48 5.2 E 19 30 10 16 1025.5 1025.5 0.0
25/10:00pm 16.1 11.1 4.5 46 5.4 E 20 28 11 15 1025.4 1025.4 0.0
25/09:30pm 16.6 11.5 4.1 43 5.8 E 20 35 11 19 1025.4 1025.4 0.0
25/09:00pm 16.3 11.6 3.4 42 5.9 E 17 20 9 11 1025.2 1025.2 0.0
25/08:30pm 15.7 11.8 3.4 43 5.6 ESE 13 17 7 9 1025.1 1025.1 0.0
25/08:00pm 14.2 10.4 3.8 49 4.7 SE 13 19 7 10 1024.9 1024.8 0.0
25/07:30pm 15.0 11.2 4.1 48 5.0 SE 13 13 7 7 1024.6 1024.5 0.0
25/07:00pm 15.4 11.6 4.1 47 5.2 SE 13 15 7 8 1024.4 1024.3 0.0
25/06:30pm 16.8 13.0 4.1 43 5.9 SE 13 15 7 8 1024.3 1024.2 0.0
25/06:00pm 18.7 14.6 4.1 38 6.9 ESE 15 19 8 10 1023.9 1023.8 0.0
25/05:30pm 20.4 16.2 3.8 33 7.9 E 15 19 8 10 1023.7 1023.6 0.0
25/05:00pm 21.0 15.6 2.6 29 8.6 E 20 30 11 16 1023.5 1023.4 0.0
25/04:30pm 22.0 16.0 3.4 29 8.9 ESE 24 35 13 19 1023.2 1023.1 0.0
25/04:00pm 22.6 17.4 3.5 28 9.2 E 20 30 11 16 1023.2 1023.1 0.0
25/03:30pm 22.0 16.0 3.1 29 9.0 E 24 33 13 18 1023.2 1023.1 0.0
25/03:00pm 22.0 16.7 3.1 29 9.0 ENE 20 28 11 15 1023.2 1023.1 0.0
25/02:30pm 22.3 17.1 3.6 29 9.0 E 20 28 11 15 1023.4 1023.3 0.0
25/02:00pm 22.3 17.4 4.2 30 8.8 ENE 19 26 10 14 1023.5 1023.4 0.0
25/01:30pm 21.7 16.5 3.8 31 8.6 E 20 33 11 18 1023.8 1023.7 0.0
25/01:00pm 21.1 16.1 4.4 33 8.1 ENE 20 28 11 15 1024.3 1024.2 0.0
25/12:30pm 20.6 15.6 4.7 35 7.7 E 20 28 11 15 1024.8 1024.7 0.0
25/12:00pm 19.7 14.3 4.5 36 7.3 E 22 30 12 16 1025.4 1025.4 0.0
25/11:30am 19.4 13.6 4.6 37 7.1 ENE 24 35 13 19 1025.8 1025.8 0.0
25/11:00am 18.9 12.8 4.7 39 6.8 ENE 26 32 14 17 1026.3 1026.3 0.0
25/10:30am 18.2 12.6 5.3 42 6.3 E 24 32 13 17 1026.8 1026.8 0.0
25/10:00am 17.4 12.2 5.6 45 5.7 ENE 22 33 12 18 1027.2 1027.2 0.0
25/09:30am 16.9 11.0 5.9 48 5.3 ENE 26 35 14 19 1027.6 1027.6 0.0
25/09:00am 15.4 9.5 5.7 52 4.6 ENE 26 35 14 19 1027.7 1027.7 0.0
25/08:30am 14.9 10.3 6.4 57 4.1 E 20 28 11 15 1027.9 1027.9 0.0
25/08:00am 13.4 9.4 6.5 63 3.3 E 17 22 9 12 1027.7 1027.7 0.0
25/07:30am 13.0 8.9 6.2 63 3.2 E 17 30 9 16 1027.3 1027.3 0.0
25/07:00am 12.8 8.7 6.0 63 3.2 E 17 30 9 16 1026.9 1026.9 0.0
25/06:30am 12.7 8.0 5.9 63 3.2 E 20 35 11 19 1026.4 1026.4 0.0
25/06:00am 13.1 7.5 5.6 60 3.5 ENE 24 32 13 17 1026.3 1026.3 0.0
25/05:30am 13.1 8.4 5.9 61 3.4 E 20 30 11 16 1026.2 1026.2 0.0
25/05:00am 13.3 8.2 5.9 61 3.5 E 22 30 12 16 1026.0 1026.0 0.0
25/04:30am 13.5 8.8 5.9 60 3.6 E 20 30 11 16 1025.8 1025.8 0.0
25/04:00am 13.2 9.1 6.0 61 3.4 E 17 28 9 15 1025.8 1025.8 0.0
25/03:30am 13.7 9.0 5.9 59 3.7 E 20 32 11 17 1025.6 1025.6 0.0
25/03:00am 14.1 8.6 5.9 57 3.9 E 24 33 13 18 1025.5 1025.5 0.0
25/02:30am 14.1 9.4 6.1 58 3.8 E 20 30 11 16 1025.6 1025.6 0.0
25/02:00am 14.3 9.2 5.9 57 4.0 E 22 37 12 20 1025.7 1025.7 0.0
25/01:30am 14.3 9.2 6.1 58 3.9 E 22 41 12 22 1025.6 1025.6 0.0
25/01:00am 14.6 9.1 6.0 56 4.1 E 24 41 13 22 1025.6 1025.6 0.0
25/12:30am 15.0 9.1 5.7 53 4.4 E 26 37 14 20 1025.7 1025.7 0.0
25/12:00am 15.1 9.6 5.9 54 4.4 E 24 39 13 21 1025.8 1025.8 0.0
 
Date/Time
WST
Tmp

°C
App
Tmp
°C
Dew
Point
°C
Rel
Hum
%
Delta-T

°C
Wind Press
QNH
hPa
Press
MSL
hPa
Rain
since
9 am
mm
Dir
 
Spd
km/h
Gust
km/h
Spd
kts
Gust
kts
24/11:30pm 15.4 9.1 5.7 52 4.6 E 28 43 15 23 1025.7 1025.7 0.0
24/11:15pm 15.7 9.0 5.4 50 4.9 E 30 54 16 29 1025.6 1025.6 0.0
24/11:00pm 15.5 9.2 5.6 51 4.7 E 28 41 15 22 1025.9 1025.9 0.0
24/10:30pm 15.3 10.1 5.3 51 4.7 E 22 37 12 20 1026.4 1026.4 0.0
24/10:00pm 15.8 10.5 4.9 48 5.1 E 22 30 12 16 1026.5 1026.5 0.0
24/09:30pm 15.7 11.0 5.1 49 5.0 ESE 19 32 10 17 1026.6 1026.6 0.0
24/09:00pm 15.6 11.6 4.9 49 5.0 ESE 15 22 8 12 1026.5 1026.5 0.0
24/08:30pm 15.7 11.3 4.8 48 5.1 ESE 17 24 9 13 1026.5 1026.5 0.0
24/08:00pm 16.1 11.4 5.1 48 5.2 ESE 19 26 10 14 1026.5 1026.5 0.0
24/07:30pm 17.0 11.6 4.7 44 5.8 ESE 22 32 12 17 1026.5 1026.5 0.0
24/07:00pm 17.4 12.6 4.5 42 6.1 ESE 19 26 10 14 1026.2 1026.2 0.0
24/06:30pm 17.4 13.7 4.7 43 6.0 ESE 13 20 7 11 1026.0 1026.0 0.0
24/06:00pm 17.9 13.4 4.0 39 6.5 ESE 17 22 9 12 1025.7 1025.7 0.0
24/05:30pm 17.8 14.1 4.2 40 6.4 E 13 20 7 11 1025.6 1025.6 0.0
24/05:00pm 18.3 12.8 3.8 38 6.8 ESE 22 33 12 18 1025.5 1025.5 0.0
24/04:30pm 18.6 13.0 3.6 37 7.0 ESE 22 33 12 18 1025.4 1025.4 0.0
24/04:00pm 19.1 13.2 4.1 37 7.1 ESE 24 32 13 17 1025.3 1025.3 0.0
24/03:30pm 19.3 14.2 4.1 36 7.3 ESE 20 30 11 16 1025.8 1025.8 0.0
24/03:00pm 20.0 14.1 4.1 35 7.6 ESE 24 35 13 19 1025.6 1025.6 0.0
24/02:30pm 20.1 13.8 3.9 34 7.7 ESE 26 35 14 19 1025.6 1025.6 0.0
24/02:00pm 19.5 13.7 4.2 36 7.3 ESE 24 32 13 17 1025.5 1025.5 0.0
24/01:30pm 19.5 13.7 4.2 36 7.3 E 24 33 13 18 1026.0 1026.0 0.0
24/01:00pm 20.1 15.3 4.5 36 7.5 E 19 28 10 15 1026.5 1026.5 0.0
24/12:30pm 19.3 13.4 3.8 36 7.4 E 24 33 13 18 1026.8 1026.8 0.0
24/12:00pm 19.1 12.4 3.8 36 7.2 E 28 43 15 23 1027.3 1027.3 0.0
24/11:30am 18.3 11.3 4.0 38 6.8 ESE 30 39 16 21 1027.6 1027.6 0.0
24/11:00am 18.0 11.5 4.5 41 6.4 ESE 28 35 15 19 1028.2 1028.2 0.0
24/10:30am 17.1 10.5 4.3 42 6.0 E 28 39 15 21 1028.6 1028.6 0.0
24/10:00am 15.8 9.2 4.1 45 5.4 E 28 35 15 19 1029.1 1029.1 0.0
24/09:30am 15.1 9.5 3.6 46 5.3 E 22 37 12 20 1029.4 1029.4 0.0
24/09:00am 14.1 8.2 3.7 49 4.7 E 24 35 13 19 1029.6 1029.6 0.0
24/08:30am 13.0 8.5 4.1 54 4.0 E 17 22 9 12 1029.7 1029.7 0.0
24/08:00am 12.4 7.4 3.6 55 3.9 E 19 22 10 12 1029.4 1029.4 0.0
24/07:30am 11.9 6.9 3.5 56 3.7 ESE 19 28 10 15 1029.2 1029.2 0.0
24/07:00am 11.1 6.9 3.6 60 3.3 ESE 15 24 8 13 1029.0 1029.0 0.0
24/06:30am 10.8 6.5 3.5 60 3.2 ESE 15 20 8 11 1028.4 1028.4 0.0
24/06:00am 11.3 5.3 3.6 59 3.4 ESE 24 35 13 19 1027.9 1027.9 0.0
24/05:30am 11.1 6.6 4.4 63 3.0 ESE 17 24 9 13 1027.8 1027.8 0.0
24/05:00am 11.5 6.7 4.6 62 3.1 ESE 19 26 10 14 1027.6 1027.6 0.0
24/04:30am 11.6 6.8 4.7 62 3.1 ESE 19 24 10 13 1027.5 1027.5 0.0
24/04:00am 11.7 7.3 4.6 62 3.2 ESE 17 22 9 12 1027.2 1027.2 0.0
24/03:30am 12.0 7.2 4.7 61 3.3 ESE 19 30 10 16 1027.0 1027.0 0.0
24/03:00am 12.6 7.3 5.0 60 3.5 ESE 22 32 12 17 1027.1 1027.1 0.0
24/02:30am 12.9 7.8 6.1 63 3.2 ESE 22 33 12 18 1027.4 1027.4 0.0
24/02:00am 13.5 8.7 7.3 66 3.0 ESE 22 30 12 16 1027.5 1027.5 0.0
24/01:30am 14.0 8.5 7.7 66 3.1 ESE 26 33 14 18 1027.5 1027.5 0.0
24/01:00am 14.1 10.2 8.7 70 2.7 ESE 19 26 10 14 1027.3 1027.3 0.0
24/12:30am 13.3 11.4 9.1 76 2.1 E 9 13 5 7 1027.2 1027.2 0.0
24/12:00am 14.7 11.3 9.2 69 2.8 ESE 17 24 9 13 1026.9 1026.9 0.0
 
Date/Time
WST
Tmp

°C
App
Tmp
°C
Dew
Point
°C
Rel
Hum
%
Delta-T

°C
Wind Press
QNH
hPa
Press
MSL
hPa
Rain
since
9 am
mm
Dir
 
Spd
km/h
Gust
km/h
Spd
kts
Gust
kts
23/11:30pm 15.4 10.7 9.4 67 3.1 ESE 24 30 13 16 1026.5 1026.5 0.0
23/11:00pm 15.8 11.1 9.4 65 3.3 ESE 24 41 13 22 1026.4 1026.4 0.0
23/10:46pm 16.4 10.6 9.4 63 3.6 ESE 30 48 16 26 1026.3 1026.3 0.0
23/10:39pm 16.4 10.2 9.4 63 3.6 ESE 32 44 17 24 1026.2 1026.2 0.0
23/10:30pm 16.3 12.4 9.3 63 3.6 SE 20 26 11 14 1026.2 1026.2 0.0
23/10:00pm 17.0 13.1 8.8 58 4.2 SE 19 26 10 14 1026.0 1026.0 0.0
23/09:30pm 17.3 13.2 8.7 57 4.4 SE 20 28 11 15 1025.8 1025.8 0.0

Latest Capital City Observations: Canberra | Sydney | Melbourne | Brisbane | Adelaide | Perth | Hobart | Darwin

Other Formats:

Comma delimited format used in spreadsheet applications
http://www.bom.gov.au/fwo/IDW60901/IDW60901.94609.axf

JavaScript Object Notation format (JSON) in row-major order
http://www.bom.gov.au/fwo/IDW60901/IDW60901.94609.json